createdAt,value
2017-12-24T00:02:39.625Z,7.30
2017-12-24T00:07:40.484Z,7.31
2017-12-24T00:12:41.291Z,7.32
2017-12-24T00:23:32.062Z,7.19
2017-12-24T00:28:32.881Z,7.27
2017-12-24T00:33:33.710Z,7.22
2017-12-24T00:38:34.566Z,7.24
2017-12-24T00:43:35.401Z,7.18
2017-12-24T00:48:36.183Z,7.19
2017-12-24T00:53:36.990Z,7.16
2017-12-24T00:58:37.820Z,7.16
2017-12-24T01:03:38.635Z,7.22
2017-12-24T01:25:02.407Z,7.14
2017-12-24T01:30:03.209Z,7.14
2017-12-24T01:35:04.011Z,7.15
2017-12-24T01:40:04.805Z,7.18
2017-12-24T01:45:05.631Z,7.16
2017-12-24T01:50:06.451Z,7.15
2017-12-24T01:55:07.249Z,7.18
2017-12-24T02:00:08.157Z,7.14
2017-12-24T02:05:13.049Z,7.10
2017-12-24T02:10:13.909Z,7.09
2017-12-24T02:15:14.705Z,7.17
2017-12-24T02:20:15.559Z,7.17
2017-12-24T02:25:16.372Z,7.13
2017-12-24T02:30:17.148Z,7.12
2017-12-24T02:35:17.975Z,7.08
2017-12-24T02:40:18.825Z,7.12
2017-12-24T02:45:19.621Z,7.17
2017-12-24T02:50:21.021Z,7.13
2017-12-24T02:55:22.486Z,7.19
2017-12-24T03:00:23.295Z,7.18
2017-12-24T03:05:24.127Z,7.17
2017-12-24T03:10:24.937Z,7.19
2017-12-24T03:15:25.738Z,7.14
2017-12-24T03:20:26.537Z,7.20
2017-12-24T03:25:27.313Z,7.11
2017-12-24T03:30:28.122Z,7.12
2017-12-24T03:35:28.926Z,7.09
2017-12-24T03:40:29.726Z,7.11
2017-12-24T03:45:30.523Z,7.14
2017-12-24T04:06:55.071Z,7.09
2017-12-24T04:11:55.862Z,7.09
2017-12-24T04:16:56.654Z,7.03
2017-12-24T04:21:57.454Z,7.08
2017-12-24T04:26:58.247Z,7.07
2017-12-24T04:31:59.021Z,7.01
2017-12-24T04:36:59.829Z,6.98
2017-12-24T04:42:00.641Z,7.04
2017-12-24T04:47:01.408Z,7.01
2017-12-24T04:52:02.212Z,7.08
2017-12-24T04:57:03.025Z,7.08
2017-12-24T05:02:03.809Z,7.05
2017-12-24T05:07:15.010Z,7.01
2017-12-24T05:12:15.841Z,7.02
2017-12-24T05:17:16.626Z,7.03
2017-12-24T05:22:17.462Z,7.04
2017-12-24T05:27:18.269Z,7.00
2017-12-24T05:32:19.096Z,6.98
2017-12-24T05:37:19.905Z,6.99
2017-12-24T05:42:20.741Z,6.96
2017-12-24T05:47:21.525Z,6.97
2017-12-24T05:52:22.379Z,6.93
2017-12-24T05:57:23.185Z,6.94
2017-12-24T06:02:24.025Z,6.93
2017-12-24T06:07:24.850Z,6.98
2017-12-24T06:12:25.681Z,6.98
2017-12-24T06:17:26.529Z,6.92
2017-12-24T06:22:27.320Z,6.94
2017-12-24T06:27:28.128Z,7.00
2017-12-24T06:32:28.913Z,6.95
2017-12-24T06:37:29.727Z,6.93
2017-12-24T06:42:30.535Z,6.90
2017-12-24T06:47:31.325Z,6.91
2017-12-24T07:08:55.069Z,6.80
2017-12-24T07:13:55.897Z,6.76
2017-12-24T07:18:56.722Z,6.59
2017-12-24T07:23:57.517Z,6.54
2017-12-24T07:28:58.321Z,6.49
2017-12-24T07:33:59.114Z,6.63
2017-12-24T07:38:59.949Z,6.57
2017-12-24T07:44:00.757Z,6.48
2017-12-24T07:49:01.559Z,6.51
2017-12-24T07:54:02.381Z,6.44
2017-12-24T07:59:03.176Z,6.41
2017-12-24T08:04:03.985Z,6.24
2017-12-24T08:09:04.801Z,6.47
2017-12-24T08:14:05.603Z,6.40
2017-12-24T08:19:06.430Z,6.41
2017-12-24T08:24:07.273Z,6.43
2017-12-24T08:29:08.070Z,6.40
2017-12-24T08:34:08.864Z,6.49
2017-12-24T08:39:09.694Z,6.46
2017-12-24T08:44:24.509Z,6.39
2017-12-24T08:49:25.458Z,6.40
2017-12-24T08:54:33.209Z,6.42
2017-12-24T08:59:34.095Z,6.43
2017-12-24T09:04:34.951Z,6.43
2017-12-24T09:09:35.805Z,6.56
2017-12-24T09:14:36.614Z,6.47
2017-12-24T09:19:37.477Z,6.52
2017-12-24T09:24:46.533Z,6.51
2017-12-24T09:29:47.335Z,6.61
2017-12-24T09:34:48.141Z,6.69
2017-12-24T09:39:48.982Z,6.60
2017-12-24T09:44:49.821Z,6.63
2017-12-24T10:00:52.205Z,6.76
2017-12-24T10:17:12.746Z,6.59
2017-12-24T10:22:13.551Z,6.67
2017-12-24T10:27:14.459Z,6.74
2017-12-24T10:32:15.258Z,6.87
2017-12-24T10:37:16.078Z,6.82
2017-12-24T10:42:16.975Z,6.80
2017-12-24T10:47:17.799Z,6.79
2017-12-24T10:52:18.659Z,6.85
2017-12-24T10:57:19.477Z,7.03
2017-12-24T11:02:20.323Z,7.03
2017-12-24T11:07:21.273Z,6.97
2017-12-24T11:12:41.978Z,7.12
2017-12-24T11:28:40.023Z,7.14
2017-12-24T12:12:38.626Z,7.07
2017-12-24T12:17:39.490Z,7.12
2017-12-24T12:22:40.369Z,7.18
2017-12-24T12:27:41.169Z,7.19
2017-12-24T12:32:47.628Z,7.12
2017-12-24T12:37:48.457Z,7.12
2017-12-24T12:59:37.553Z,7.13
2017-12-24T13:10:21.776Z,7.20
2017-12-24T13:15:22.622Z,7.26
2017-12-24T13:20:23.422Z,7.37
2017-12-24T13:25:24.261Z,7.33
2017-12-24T13:30:38.657Z,7.33
2017-12-24T13:35:39.825Z,7.21
2017-12-24T13:40:40.682Z,7.25
2017-12-24T13:51:19.306Z,7.20
2017-12-24T13:56:20.155Z,7.28
2017-12-24T14:01:21.027Z,7.37
2017-12-24T14:06:46.131Z,7.26
2017-12-24T14:11:47.005Z,7.26
2017-12-24T14:22:38.749Z,6.90
2017-12-24T14:27:46.695Z,6.91
2017-12-24T14:32:47.574Z,6.89
2017-12-24T14:37:48.472Z,6.84
2017-12-24T14:42:55.693Z,6.72
2017-12-24T14:47:56.526Z,6.79
2017-12-24T14:52:57.330Z,6.62
2017-12-24T15:14:31.177Z,6.42
2017-12-24T15:19:32.064Z,6.40
2017-12-24T15:24:36.039Z,6.47
2017-12-24T15:29:42.866Z,6.36
2017-12-24T15:34:43.724Z,6.30
2017-12-24T15:39:44.513Z,6.35
2017-12-24T15:44:45.327Z,6.33
2017-12-24T15:49:46.158Z,6.39
2017-12-24T15:54:46.981Z,6.32
2017-12-24T16:43:30.791Z,6.26
2017-12-24T16:48:54.017Z,6.21
2017-12-24T16:59:29.017Z,6.13
2017-12-24T17:04:29.870Z,6.15
2017-12-24T17:09:30.682Z,6.19
2017-12-24T17:14:49.243Z,6.19
2017-12-24T17:19:50.044Z,6.17
2017-12-24T17:24:50.908Z,6.15
2017-12-24T17:46:15.379Z,6.09
2017-12-24T17:56:49.750Z,6.17
2017-12-24T18:01:50.573Z,6.13
2017-12-24T18:06:51.382Z,6.17
2017-12-24T18:11:52.157Z,6.21
2017-12-24T18:16:53.017Z,6.18
2017-12-24T18:21:53.804Z,6.17
2017-12-24T18:26:54.635Z,6.20
2017-12-24T18:31:55.445Z,6.22
2017-12-24T18:36:56.544Z,6.14
2017-12-24T18:41:57.378Z,6.12
2017-12-24T18:46:58.174Z,6.13
2017-12-24T18:51:58.976Z,6.24
2017-12-24T18:57:16.858Z,6.16
2017-12-24T19:02:17.684Z,6.15
2017-12-24T19:07:18.509Z,6.12
2017-12-24T19:12:19.351Z,6.14
2017-12-24T19:17:20.164Z,6.12
2017-12-24T19:22:20.977Z,6.13
2017-12-24T19:27:21.768Z,6.20
2017-12-24T19:32:22.586Z,6.12
2017-12-24T19:37:23.432Z,6.09
2017-12-24T19:42:24.279Z,6.13
2017-12-24T19:47:25.136Z,6.15
2017-12-24T19:52:25.930Z,6.11
2017-12-24T20:03:04.487Z,6.09
2017-12-24T20:08:05.348Z,6.12
2017-12-24T20:29:30.132Z,6.13
2017-12-24T20:50:55.560Z,6.12
2017-12-24T21:01:24.284Z,6.01
2017-12-24T21:06:25.225Z,6.05
2017-12-24T21:11:26.027Z,6.09
2017-12-24T21:16:37.685Z,6.02
2017-12-24T21:21:38.564Z,6.04
2017-12-24T21:26:39.368Z,6.08
2017-12-24T21:31:40.207Z,6.05
2017-12-24T21:36:41.004Z,5.95
2017-12-24T21:41:41.850Z,6.01
2017-12-24T21:46:42.725Z,6.05
2017-12-24T22:13:35.549Z,5.97
2017-12-24T22:18:36.359Z,5.98
2017-12-24T22:23:37.176Z,5.97
2017-12-24T22:28:44.893Z,5.94
2017-12-24T22:33:45.796Z,5.88
2017-12-24T22:38:46.665Z,5.85
2017-12-24T22:43:47.580Z,5.80
2017-12-24T22:48:51.863Z,5.93
2017-12-24T22:53:52.739Z,5.83
2017-12-24T22:58:53.544Z,5.86
2017-12-24T23:03:54.388Z,5.81
2017-12-24T23:08:55.222Z,5.79
2017-12-24T23:13:56.098Z,5.78
2017-12-24T23:24:37.510Z,5.63
2017-12-24T23:29:38.337Z,5.63
2017-12-24T23:34:39.163Z,5.57
2017-12-24T23:39:40.016Z,5.56
2017-12-24T23:44:40.792Z,5.57
2017-12-24T23:49:41.636Z,5.57
2017-12-24T23:54:42.507Z,5.47
2017-12-24T23:59:43.289Z,5.43
